Time;durP1;ratioP1;P1;durP2;ratioP2;P2;SDS_P1;SDS_P2;PMS_P1;PMS_P2;Temp;Humidity;BMP_temperature;BMP_pressure;BME280_temperature;BME280_humidity;BME280_pressure;Samples;Min_cycle;Max_cycle;Signal;HPM_P1;HPM_P2
2021/03/02 00:02:17;;;;;;;56.50;17.15;;;4.90;72.20;;;3.89;54.36;96497.31;5059073;28;20211;-83
2021/03/02 00:04:45;;;;;;;55.92;16.60;;;4.90;72.30;;;3.84;54.64;96493.28;5063745;28;20195;-83
2021/03/02 00:07:16;;;;;;;63.88;17.33;;;4.80;71.90;;;3.77;54.83;96491.22;5074453;28;20207;-82
2021/03/02 00:09:44;;;;;;;74.15;17.50;;;4.80;72.20;;;3.71;54.73;96486.47;5074323;28;20195;-82
2021/03/02 00:12:26;;;;;;;57.30;15.68;;;4.70;72.20;;;3.68;54.95;96487.53;5059394;28;20211;-83
2021/03/02 00:14:54;;;;;;;67.68;15.57;;;4.70;72.10;;;3.65;55.10;96485.13;5040736;28;20670;-84
2021/03/02 00:17:34;;;;;;;45.67;13.60;;;4.60;72.10;;;3.58;55.01;96492.53;5063484;28;20296;-83
2021/03/02 00:20:11;;;;;;;55.85;14.32;;;4.60;72.10;;;3.50;55.13;96492.25;5058222;28;20179;-82
2021/03/02 00:22:59;;;;;;;45.15;13.45;;;4.50;72.00;;;3.47;54.93;96492.47;5057630;28;20276;-83
2021/03/02 00:25:33;;;;;;;47.22;13.13;;;4.50;72.70;;;3.43;54.89;96491.88;5044367;28;20241;-81
2021/03/02 00:28:08;;;;;;;45.28;13.70;;;4.40;71.90;;;3.45;55.00;96496.94;5055223;28;20195;-83
2021/03/02 00:30:37;;;;;;;34.00;12.88;;;4.50;72.50;;;3.45;55.14;96489.16;5053546;28;20225;-82
2021/03/02 00:33:06;;;;;;;53.85;13.43;;;4.40;71.90;;;3.43;55.09;96480.66;5074043;28;20203;-82
2021/03/02 00:35:34;;;;;;;55.25;13.07;;;4.30;71.90;;;3.42;54.94;96485.03;5050507;28;20276;-82
2021/03/02 00:38:01;;;;;;;42.97;12.40;;;4.30;71.90;;;3.37;54.88;96479.34;5052686;28;20214;-83
2021/03/02 00:40:28;;;;;;;43.65;13.68;;;4.40;71.90;;;3.41;55.04;96482.53;5073425;28;20265;-82
2021/03/02 00:42:57;;;;;;;55.00;13.05;;;4.40;71.90;;;3.35;55.14;96471.63;5072104;28;20202;-83
2021/03/02 00:45:24;;;;;;;85.50;14.40;;;4.30;71.80;;;3.32;55.02;96474.47;5060189;28;20230;-83
2021/03/02 00:47:55;;;;;;;38.67;12.82;;;4.30;72.00;;;3.28;55.05;96472.19;5064424;28;20195;-82
2021/03/02 00:50:24;;;;;;;52.13;13.07;;;4.30;72.00;;;3.31;55.01;96479.78;5065113;28;20219;-83
2021/03/02 00:52:52;;;;;;;53.20;13.38;;;4.20;71.80;;;3.31;55.28;96482.38;5055373;28;20195;-82
2021/03/02 00:55:22;;;;;;;43.65;12.20;;;4.20;71.80;;;3.31;55.18;96475.41;5064776;28;20215;-83
2021/03/02 00:57:50;;;;;;;51.38;12.70;;;4.20;71.90;;;3.31;55.14;96475.41;5055183;28;20249;-83
2021/03/02 01:00:22;;;;;;;46.05;12.23;;;4.20;71.90;;;3.29;55.12;96476.44;5055989;28;20219;-84
2021/03/02 01:02:49;;;;;;;53.67;11.82;;;4.20;72.10;;;3.28;55.04;96479.97;5056382;28;20282;-84
2021/03/02 01:05:17;;;;;;;34.42;11.68;;;4.20;71.90;;;3.23;54.84;96469.91;5073449;28;20215;-83
2021/03/02 01:07:45;;;;;;;60.08;12.93;;;4.20;72.10;;;3.24;55.08;96479.34;5056430;28;20195;-84
2021/03/02 01:10:18;;;;;;;41.05;12.43;;;4.20;72.00;;;3.22;55.14;96472.63;5073420;28;20187;-84
2021/03/02 01:13:00;;;;;;;43.42;12.45;;;4.10;72.10;;;3.19;55.33;96468.47;5066639;28;20280;-84
2021/03/02 01:15:28;;;;;;;38.33;12.50;;;4.10;71.70;;;3.15;55.11;96469.63;5093079;28;20214;-84
2021/03/02 01:17:55;;;;;;;29.17;11.65;;;4.10;71.70;;;3.07;55.33;96459.78;5093499;28;20199;-83
2021/03/02 01:20:23;;;;;;;54.53;12.18;;;4.10;71.90;;;3.04;55.29;96463.44;5076375;28;20215;-84
2021/03/02 01:22:49;;;;;;;36.28;11.07;;;4.10;71.70;;;3.06;55.28;96457.31;5060393;28;20248;-83
2021/03/02 01:25:16;;;;;;;41.92;11.98;;;4.10;71.80;;;3.04;55.18;96462.63;5059840;28;20641;-81
2021/03/02 01:27:43;;;;;;;33.70;11.70;;;4.00;71.90;;;2.97;55.21;96451.81;5076371;28;20229;-80
2021/03/02 01:30:12;;;;;;;76.50;13.20;;;4.00;71.90;;;3.00;55.37;96455.97;5059326;28;20248;-81
2021/03/02 01:32:41;;;;;;;46.35;11.13;;;4.00;72.10;;;2.98;55.44;96456.06;5076352;28;20285;-81
2021/03/02 01:35:12;;;;;;;71.93;12.23;;;3.90;72.10;;;2.95;55.47;96453.69;5060039;28;20656;-81
2021/03/02 01:37:40;;;;;;;58.88;11.57;;;3.90;72.20;;;2.92;55.43;96453.91;5076426;28;20226;-83
2021/03/02 01:40:13;;;;;;;46.55;11.68;;;3.90;72.10;;;2.89;55.49;96446.34;5059305;28;20227;-84
2021/03/02 01:42:41;;;;;;;46.45;11.35;;;3.90;72.30;;;2.84;55.76;96445.84;5059751;28;20202;-83
2021/03/02 01:45:12;;;;;;;45.10;11.20;;;3.90;72.20;;;2.89;55.75;96454.09;5092557;28;20528;-80
2021/03/02 01:47:41;;;;;;;35.55;11.02;;;3.80;72.20;;;2.85;55.32;96447.50;5055802;28;20199;-82
2021/03/02 01:50:10;;;;;;;41.38;11.88;;;3.80;72.10;;;2.85;55.52;96450.91;5055876;28;20222;-83
2021/03/02 01:52:38;;;;;;;47.00;11.63;;;3.80;72.30;;;2.83;55.49;96455.38;5072356;28;20282;-84
2021/03/02 01:55:07;;;;;;;29.92;10.63;;;3.80;72.30;;;2.80;55.86;96454.75;5059039;28;20580;-82
2021/03/02 01:57:34;;;;;;;43.80;10.65;;;3.80;72.50;;;2.82;55.71;96451.13;5054600;28;20241;-82
2021/03/02 02:00:38;;;;;;;48.60;10.80;;;3.70;73.20;;;2.80;55.61;96447.81;5064021;28;20225;-82
2021/03/02 02:03:29;;;;;;;48.20;10.60;;;3.70;72.80;;;2.82;55.72;96455.47;5047350;28;20202;-82
2021/03/02 02:06:26;;;;;;;46.78;11.45;;;3.70;72.70;;;2.77;55.86;96442.00;5072029;28;20219;-82
2021/03/02 02:09:05;;;;;;;36.80;10.65;;;3.70;73.50;;;2.78;55.59;96447.06;5071954;28;20192;-83
2021/03/02 02:12:09;;;;;;;48.78;11.32;;;3.70;72.70;;;2.78;55.39;96451.44;5055407;28;20240;-82
2021/03/02 02:14:59;;;;;;;43.83;10.65;;;3.70;73.20;;;2.74;55.56;96434.47;5071099;28;20286;-83
2021/03/02 02:18:04;;;;;;;40.17;10.30;;;3.70;73.30;;;2.75;55.46;96439.53;5040848;28;20214;-82
2021/03/02 02:20:50;;;;;;;37.38;10.65;;;3.70;73.30;;;2.75;55.36;96436.09;5068334;28;20234;-82
2021/03/02 02:23:46;;;;;;;39.65;9.95;;;3.70;73.20;;;2.75;55.69;96436.09;5078726;28;20229;-82
2021/03/02 02:26:54;;;;;;;28.60;10.43;;;3.70;73.00;;;2.72;55.70;96431.94;5064535;28;20219;-82
2021/03/02 02:29:27;;;;;;;31.55;9.80;;;3.70;73.40;;;2.68;55.74;96420.97;5072023;28;20240;-83
2021/03/02 02:32:00;;;;;;;40.90;11.00;;;3.70;72.80;;;2.72;55.79;96417.25;5065835;28;20218;-82
2021/03/02 02:34:31;;;;;;;40.53;9.88;;;3.60;72.60;;;2.69;55.77;96408.88;5079802;28;20523;-82
2021/03/02 02:37:01;;;;;;;35.72;10.57;;;3.60;72.60;;;2.71;55.54;96413.00;5065333;28;20211;-82
2021/03/02 02:39:32;;;;;;;41.33;10.30;;;3.60;72.70;;;2.65;56.03;96399.63;5063163;28;20207;-83
2021/03/02 02:42:00;;;;;;;42.20;10.82;;;3.60;72.60;;;2.69;56.07;96412.25;5048374;28;20220;-83
2021/03/02 02:44:27;;;;;;;44.50;10.98;;;3.60;72.60;;;2.70;55.63;96413.94;5047895;28;20199;-82
2021/03/02 02:46:58;;;;;;;28.80;11.43;;;3.60;72.80;;;2.71;55.83;96415.59;5071279;28;20218;-83
2021/03/02 02:49:27;;;;;;;43.08;11.32;;;3.60;73.00;;;2.72;56.11;96413.81;5070041;28;20249;-84
2021/03/02 02:51:54;;;;;;;36.70;11.82;;;3.60;72.90;;;2.71;55.86;96410.41;5053329;28;20211;-83
2021/03/02 02:54:21;;;;;;;28.92;10.75;;;3.60;72.80;;;2.73;56.03;96418.06;5053928;28;20195;-85
2021/03/02 02:56:50;;;;;;;36.58;11.43;;;3.60;73.00;;;2.67;56.15;96406.38;5056004;28;20287;-83
2021/03/02 02:59:38;;;;;;;31.15;12.23;;;3.60;73.10;;;2.74;55.96;96408.56;5073906;28;20210;-84
2021/03/02 03:02:09;;;;;;;55.75;12.88;;;3.60;73.90;;;2.75;55.90;96417.94;5068174;28;20695;-83
2021/03/02 03:04:42;;;;;;;42.25;11.20;;;3.60;73.30;;;2.75;56.21;96423.13;5053162;28;20741;-83
2021/03/02 03:07:17;;;;;;;37.10;12.35;;;3.70;73.30;;;2.77;56.29;96426.47;5071072;28;20215;-82
2021/03/02 03:09:43;;;;;;;38.33;12.05;;;3.60;73.40;;;2.79;56.45;96420.22;5052935;28;20195;-83
2021/03/02 03:12:13;;;;;;;48.83;11.85;;;3.60;73.10;;;2.79;56.23;96422.00;5052806;28;20223;-84
2021/03/02 03:14:50;;;;;;;52.55;12.25;;;3.60;73.30;;;2.80;56.09;96411.53;5054527;28;20290;-83
2021/03/02 03:17:19;;;;;;;51.28;11.82;;;3.70;73.40;;;2.79;56.33;96424.59;5071704;28;20238;-83
2021/03/02 03:19:47;;;;;;;48.05;12.60;;;3.70;73.40;;;2.82;56.52;96425.22;5051752;28;20227;-81
2021/03/02 03:22:16;;;;;;;61.80;12.77;;;3.60;73.20;;;2.83;56.36;96418.25;5070417;28;20766;-82
2021/03/02 03:24:44;;;;;;;41.80;12.35;;;3.70;73.40;;;2.84;56.48;96419.91;5065626;28;20259;-83
2021/03/02 03:27:13;;;;;;;64.43;12.35;;;3.70;73.40;;;2.83;56.31;96410.47;5066105;28;20245;-83
2021/03/02 03:29:42;;;;;;;69.82;13.68;;;3.70;73.50;;;2.88;56.31;96418.75;5062850;28;20633;-83
2021/03/02 03:32:10;;;;;;;46.45;11.98;;;3.70;73.40;;;2.86;56.27;96411.09;5063160;28;20314;-83
2021/03/02 03:34:40;;;;;;;62.08;13.05;;;3.70;73.50;;;2.86;56.29;96412.88;5077283;28;20199;-83
2021/03/02 03:37:07;;;;;;;59.08;12.00;;;3.80;73.70;;;2.90;56.69;96416.09;5067861;28;20226;-82
2021/03/02 03:39:34;;;;;;;96.10;15.30;;;3.70;73.40;;;2.88;56.42;96417.00;5074906;28;20264;-83
2021/03/02 03:42:01;;;;;;;61.20;12.13;;;3.70;73.50;;;2.88;56.38;96413.56;5057647;28;20211;-83
2021/03/02 03:44:28;;;;;;;56.90;11.63;;;3.70;73.50;;;2.89;56.50;96420.41;5085217;28;20207;-83
2021/03/02 03:46:55;;;;;;;72.78;12.25;;;3.80;73.60;;;2.91;56.79;96417.75;5064194;28;20723;-83
2021/03/02 03:49:22;;;;;;;69.22;11.63;;;3.70;73.50;;;2.88;56.36;96411.84;5060939;28;20207;-83
2021/03/02 03:51:52;;;;;;;67.78;12.65;;;3.80;73.60;;;2.90;57.33;96416.09;5074676;28;20234;-82
2021/03/02 03:54:20;;;;;;;82.13;12.75;;;3.80;73.70;;;2.84;56.93;96412.97;5058544;28;20225;-82
2021/03/02 03:56:48;;;;;;;66.43;13.73;;;3.80;73.60;;;2.87;57.21;96411.94;5063733;28;20284;-82
2021/03/02 03:59:15;;;;;;;59.78;12.82;;;3.80;73.60;;;2.85;57.41;96406.84;5049525;28;20594;-83
2021/03/02 04:01:42;;;;;;;46.58;12.10;;;3.80;73.60;;;2.86;57.17;96411.09;5072780;28;20306;-82
2021/03/02 04:04:11;;;;;;;71.47;12.60;;;3.70;73.60;;;2.86;57.16;96402.50;5071760;28;20195;-83
2021/03/02 04:06:38;;;;;;;50.67;13.27;;;3.80;73.80;;;2.86;57.17;96398.16;5067096;28;20219;-82
2021/03/02 04:09:05;;;;;;;46.28;12.10;;;3.70;73.80;;;2.87;57.17;96407.59;5069115;28;20234;-82
2021/03/02 04:11:37;;;;;;;43.47;12.07;;;3.70;73.80;;;2.86;57.20;96403.31;5065879;28;20223;-82
2021/03/02 04:14:05;;;;;;;53.17;11.57;;;3.70;74.00;;;2.86;57.15;96405.09;5052191;28;20734;-83
2021/03/02 04:16:32;;;;;;;40.70;11.95;;;3.70;73.70;;;2.88;57.10;96411.84;5084386;28;20214;-83
2021/03/02 04:18:59;;;;;;;35.15;11.02;;;3.70;73.80;;;2.87;57.48;96405.00;5066510;28;20211;-82
2021/03/02 04:21:26;;;;;;;45.70;12.40;;;3.70;73.80;;;2.88;57.20;96417.00;5051354;28;20634;-82
2021/03/02 04:23:53;;;;;;;44.90;12.45;;;3.70;73.80;;;2.90;56.72;96418.69;5056479;28;20198;-82
2021/03/02 04:26:20;;;;;;;72.03;13.40;;;3.70;73.80;;;2.88;57.13;96406.66;5086601;28;20217;-82
2021/03/02 04:28:47;;;;;;;33.03;11.88;;;3.70;73.80;;;2.83;57.25;96407.91;5062955;28;20286;-83
2021/03/02 04:31:13;;;;;;;41.58;12.75;;;3.80;73.90;;;2.88;57.31;96413.56;5063057;28;20226;-82
2021/03/02 04:33:40;;;;;;;32.65;11.27;;;3.70;73.80;;;2.85;56.89;96414.63;5070389;28;20249;-83
2021/03/02 04:36:08;;;;;;;31.48;11.63;;;3.70;73.80;;;2.87;56.90;96420.53;5052905;28;20223;-82
2021/03/02 04:38:36;;;;;;;33.67;12.48;;;3.70;73.90;;;2.85;57.28;96416.41;5080135;28;20692;-83
2021/03/02 04:41:03;;;;;;;35.33;12.73;;;3.80;73.90;;;2.87;57.04;96423.13;5065758;28;20215;-82
2021/03/02 04:43:29;;;;;;;43.10;11.88;;;3.70;73.90;;;2.88;57.29;96440.34;5053690;28;20687;-83
2021/03/02 04:45:56;;;;;;;40.33;13.18;;;3.70;73.90;;;2.88;57.17;96440.34;5061406;28;20318;-82
2021/03/02 04:48:22;;;;;;;40.80;13.65;;;3.70;74.00;;;2.91;57.09;96438.47;5066375;28;20206;-83
2021/03/02 04:50:49;;;;;;;34.72;12.77;;;3.70;74.00;;;2.92;57.17;96448.72;5052464;28;20218;-82
2021/03/02 04:53:17;;;;;;;28.02;12.55;;;3.70;74.00;;;2.94;57.07;96452.06;5056154;28;20215;-82
2021/03/02 04:55:44;;;;;;;35.28;13.10;;;3.80;74.10;;;2.94;57.21;96448.63;5051063;28;20273;-82
2021/03/02 04:58:11;;;;;;;46.70;13.95;;;3.80;74.10;;;2.94;57.24;96451.22;5074381;28;20248;-82
2021/03/02 05:00:37;;;;;;;45.25;14.52;;;3.80;74.10;;;2.93;57.21;96447.81;5074173;28;20214;-83
2021/03/02 05:03:05;;;;;;;52.97;13.95;;;3.70;74.00;;;2.94;57.17;96451.22;5091984;28;20194;-83
2021/03/02 05:05:32;;;;;;;43.95;13.27;;;3.80;74.10;;;2.93;57.28;96447.81;5092097;28;20222;-83
2021/03/02 05:07:59;;;;;;;67.22;13.80;;;3.80;74.00;;;2.93;57.50;96452.97;5076092;28;20187;-84
2021/03/02 05:10:26;;;;;;;39.10;12.10;;;3.80;74.10;;;2.93;57.23;96455.56;5075077;28;20259;-83
2021/03/02 05:12:54;;;;;;;34.55;12.35;;;3.80;74.00;;;2.94;57.35;96458.97;5074816;28;20207;-84
2021/03/02 05:15:21;;;;;;;32.17;12.32;;;3.80;74.10;;;2.91;57.22;96457.44;5058241;28;20214;-83
2021/03/02 05:17:48;;;;;;;35.88;13.50;;;3.80;74.10;;;2.89;57.06;96454.09;5074821;28;20221;-84
2021/03/02 05:20:15;;;;;;;42.70;14.15;;;3.80;74.20;;;2.93;57.42;96459.91;5091555;28;20214;-80
2021/03/02 05:22:42;;;;;;;30.77;12.25;;;3.80;74.30;;;2.94;57.39;96457.25;5092127;28;20186;-81
2021/03/02 05:25:09;;;;;;;43.85;12.25;;;3.80;74.20;;;2.95;57.40;96455.47;5076586;28;20452;-81
2021/03/02 05:27:36;;;;;;;43.13;12.35;;;3.80;74.20;;;2.93;57.50;96450.41;5076560;28;20247;-83
2021/03/02 05:30:05;;;;;;;29.98;11.52;;;3.80;74.30;;;2.95;57.51;96450.28;5059403;28;20202;-83
2021/03/02 05:32:32;;;;;;;54.42;12.30;;;3.70;74.30;;;2.97;57.58;96456.19;5059677;28;20229;-83
2021/03/02 05:34:59;;;;;;;50.30;12.18;;;3.80;74.30;;;2.95;57.17;96458.06;5076588;28;20226;-83
2021/03/02 05:37:26;;;;;;;55.13;13.38;;;3.80;74.20;;;2.92;57.38;96460.84;5076316;28;20198;-83
2021/03/02 05:39:53;;;;;;;32.20;12.15;;;3.80;74.20;;;2.90;57.53;96457.56;5076153;28;20221;-84
2021/03/02 05:42:20;;;;;;;44.55;12.30;;;3.80;74.20;;;2.86;57.79;96459.53;5076082;28;20211;-83
2021/03/02 05:44:47;;;;;;;46.65;12.25;;;3.70;74.20;;;2.89;57.60;96467.06;5059573;28;20198;-84
2021/03/02 05:47:14;;;;;;;55.78;12.50;;;3.70;74.20;;;2.87;57.46;96464.59;5075759;28;20314;-83
2021/03/02 05:49:42;;;;;;;51.42;12.65;;;3.70;74.20;;;2.87;57.43;96463.78;5093215;28;20286;-83
2021/03/02 05:52:11;;;;;;;55.45;13.15;;;3.80;74.30;;;2.85;57.83;96466.44;5092914;28;20218;-83
2021/03/02 05:54:40;;;;;;;55.22;13.07;;;3.70;74.40;;;2.82;57.35;96468.41;5092687;28;20683;-83
2021/03/02 05:57:07;;;;;;;46.95;14.48;;;3.70;74.30;;;2.85;57.49;96473.41;5068202;28;20215;-83
2021/03/02 05:59:34;;;;;;;61.42;23.67;;;3.70;74.30;;;2.86;57.42;96473.28;5039811;28;20225;-83
2021/03/02 06:02:02;;;;;;;57.78;20.90;;;3.70;74.30;;;2.85;58.00;96482.00;5070089;28;20323;-84
2021/03/02 06:04:29;;;;;;;48.33;17.25;;;3.70;74.40;;;2.85;58.06;96483.78;5059046;28;20236;-84
2021/03/02 06:07:01;;;;;;;44.67;15.60;;;3.70;74.40;;;2.87;57.80;96489.69;5059627;28;20219;-84
2021/03/02 06:09:29;;;;;;;35.92;13.48;;;3.70;74.80;;;2.87;57.94;96484.50;5092610;28;20187;-84
2021/03/02 06:12:07;;;;;;;36.70;13.75;;;3.70;74.50;;;2.88;58.15;96488.72;5060292;28;20218;-83
2021/03/02 06:14:35;;;;;;;34.08;14.25;;;3.70;74.80;;;2.86;58.16;96483.66;5042093;28;20191;-84
2021/03/02 06:17:04;;;;;;;46.58;14.13;;;3.70;74.40;;;2.90;58.44;96476.50;5055841;28;20242;-82
2021/03/02 06:19:44;;;;;;;42.45;13.52;;;3.70;74.70;;;2.90;58.03;96483.47;5055780;28;20227;-84
2021/03/02 06:22:38;;;;;;;37.75;12.73;;;3.70;75.00;;;2.86;58.34;96470.69;5055566;28;20226;-83
2021/03/02 06:25:26;;;;;;;39.47;12.30;;;3.70;75.10;;;2.92;58.38;96478.97;5039451;28;20543;-83
2021/03/02 06:27:53;;;;;;;39.88;12.77;;;3.80;74.80;;;2.87;58.72;96471.56;5039357;28;20179;-83
2021/03/02 06:30:20;;;;;;;50.17;13.23;;;3.80;74.70;;;2.95;58.69;96483.97;5072573;28;20206;-84
2021/03/02 06:32:53;;;;;;;41.08;14.07;;;3.80;74.90;;;2.96;58.76;96481.25;5062007;28;20207;-82
2021/03/02 06:35:42;;;;;;;41.17;13.05;;;3.80;75.20;;;2.98;58.48;96491.53;5059074;28;20199;-83
2021/03/02 06:38:09;;;;;;;44.35;12.98;;;3.80;75.50;;;2.96;58.33;96481.25;5075282;28;20191;-84
2021/03/02 06:40:43;;;;;;;36.95;12.77;;;3.90;75.00;;;3.07;58.44;96496.09;5075067;28;20261;-83
2021/03/02 06:43:37;;;;;;;45.30;13.57;;;3.80;75.20;;;3.12;58.43;96493.19;5047516;28;20187;-84
2021/03/02 06:46:07;;;;;;;39.80;12.43;;;3.90;75.70;;;3.15;58.29;96498.13;5065590;28;20219;-84
2021/03/02 06:48:56;;;;;;;35.90;13.10;;;3.90;75.10;;;3.16;58.18;96502.38;5054989;28;20203;-84
2021/03/02 06:51:29;;;;;;;49.45;13.13;;;3.90;75.60;;;3.22;58.40;96498.56;5073218;28;20217;-82
2021/03/02 06:54:25;;;;;;;48.85;12.85;;;3.90;75.00;;;3.24;58.59;96500.09;5075452;28;20195;-84
2021/03/02 06:57:03;;;;;;;35.17;13.80;;;3.90;75.40;;;3.29;58.48;96508.38;5073807;28;20222;-83
2021/03/02 06:59:30;;;;;;;38.05;15.88;;;4.00;75.50;;;3.34;58.40;96510.66;5072029;28;20226;-83
2021/03/02 07:01:57;;;;;;;35.25;14.45;;;4.00;75.00;;;3.38;58.47;96506.09;5074691;28;20230;-83
2021/03/02 07:04:29;;;;;;;42.75;16.50;;;4.10;75.20;;;3.39;58.35;96493.00;5074726;28;20243;-83
2021/03/02 07:06:58;;;;;;;55.17;16.80;;;4.10;75.40;;;3.45;58.17;96499.53;5090118;28;20750;-84
2021/03/02 07:09:26;;;;;;;43.30;14.32;;;4.10;75.20;;;3.50;58.27;96505.22;5075330;28;20191;-84
2021/03/02 07:11:57;;;;;;;56.90;18.08;;;4.20;75.30;;;3.53;58.37;96498.06;5068804;28;20222;-83
2021/03/02 07:14:27;;;;;;;118.57;31.40;;;4.20;75.20;;;3.55;58.07;96504.91;5042998;28;20202;-84
2021/03/02 07:16:56;;;;;;;61.83;22.38;;;4.20;75.20;;;3.59;58.42;96506.31;5088671;28;20214;-84
2021/03/02 07:19:23;;;;;;;69.25;20.52;;;4.20;75.30;;;3.65;58.60;96508.47;5096121;28;20218;-83
2021/03/02 07:21:57;;;;;;;53.13;17.85;;;4.30;75.30;;;3.67;58.44;96515.25;5061182;28;20582;-81
2021/03/02 07:24:28;;;;;;;43.20;16.10;;;4.30;75.30;;;3.69;58.22;96510.75;5059401;28;20188;-82
2021/03/02 07:26:58;;;;;;;51.47;14.95;;;4.30;75.60;;;3.75;58.16;96517.28;5059187;28;20219;-81
2021/03/02 07:29:25;;;;;;;51.40;15.63;;;4.40;75.50;;;3.82;58.44;96513.31;5075300;28;20234;-79
2021/03/02 07:31:52;;;;;;;34.38;14.07;;;4.40;75.50;;;3.88;58.24;96513.81;5074416;28;20223;-78
2021/03/02 07:34:19;;;;;;;31.50;13.52;;;4.40;75.50;;;3.95;58.24;96512.44;5062654;28;20249;-81
2021/03/02 07:36:47;;;;;;;50.40;14.07;;;4.50;75.60;;;4.02;58.48;96518.84;5058497;28;20945;-80
2021/03/02 07:39:19;;;;;;;40.22;14.25;;;4.50;75.60;;;4.04;58.62;96514.38;5069293;28;20221;-81
2021/03/02 07:41:48;;;;;;;53.28;13.23;;;4.60;75.70;;;4.13;58.67;96520.66;5075074;28;20340;-81
2021/03/02 07:44:20;;;;;;;47.22;14.25;;;4.70;75.80;;;4.19;58.48;96506.38;5058231;28;20195;-80
2021/03/02 07:46:50;;;;;;;49.83;14.88;;;4.80;75.90;;;4.27;58.17;96510.09;5074814;28;20214;-80
2021/03/02 07:49:23;;;;;;;44.25;15.07;;;4.80;75.80;;;4.33;58.35;96514.84;5058399;28;20187;-81
2021/03/02 07:52:16;;;;;;;37.55;14.82;;;4.80;75.80;;;4.40;58.32;96519.56;5078061;28;20291;-80
2021/03/02 07:54:45;;;;;;;33.53;14.02;;;4.90;76.20;;;4.40;58.12;96509.19;5078306;28;20249;-81
2021/03/02 07:57:15;;;;;;;31.50;13.93;;;4.90;75.60;;;4.54;58.42;96521.97;5058521;28;20235;-80
2021/03/02 07:59:44;;;;;;;38.40;13.20;;;5.00;76.30;;;4.62;58.61;96526.59;5076678;28;20669;-82
2021/03/02 08:02:21;;;;;;;33.90;13.35;;;5.10;75.90;;;4.70;58.20;96518.22;5058517;28;20227;-81
2021/03/02 08:04:50;;;;;;;37.88;14.13;;;5.10;75.70;;;4.75;58.07;96521.31;5057964;28;20195;-81
2021/03/02 08:07:28;;;;;;;46.30;15.55;;;5.20;75.70;;;4.78;58.39;96521.88;5057823;28;20699;-80
2021/03/02 08:09:58;;;;;;;34.03;14.43;;;5.30;76.10;;;4.87;57.86;96528.19;5058431;28;20191;-81
2021/03/02 08:12:35;;;;;;;30.83;13.48;;;5.30;75.90;;;4.95;58.39;96523.22;5074453;28;20298;-82
2021/03/02 08:15:22;;;;;;;33.05;13.70;;;5.40;76.00;;;5.04;58.48;96524.31;5074334;28;20215;-81
2021/03/02 08:17:48;;;;;;;38.10;14.07;;;5.50;76.30;;;5.05;58.39;96518.13;5079044;28;20193;-81
2021/03/02 08:20:15;;;;;;;38.13;13.35;;;5.60;75.90;;;5.13;58.25;96523.59;5057334;28;20229;-81
2021/03/02 08:22:43;;;;;;;35.13;14.52;;;5.60;75.90;;;5.22;58.34;96522.03;5074541;28;20241;-81
2021/03/02 08:25:29;;;;;;;37.83;14.07;;;5.70;75.90;;;5.30;58.01;96529.28;5057379;28;20245;-81
2021/03/02 08:28:00;;;;;;;32.95;14.30;;;5.70;76.30;;;5.35;58.32;96521.94;5060360;28;20194;-81
2021/03/02 08:30:32;;;;;;;44.72;15.38;;;5.80;75.90;;;5.43;58.25;96523.94;5064981;28;20235;-81
2021/03/02 08:33:05;;;;;;;38.55;15.02;;;5.90;76.20;;;5.49;58.36;96523.44;5082214;28;20208;-81
2021/03/02 08:35:37;;;;;;;51.95;15.88;;;5.90;76.00;;;5.57;58.05;96528.88;5078865;28;20222;-80
2021/03/02 08:38:08;;;;;;;49.22;16.83;;;6.00;76.00;;;5.62;58.35;96525.94;5056490;28;20294;-81
2021/03/02 08:40:34;;;;;;;45.75;16.80;;;6.10;75.90;;;5.66;58.09;96526.50;5042381;28;20590;-81
2021/03/02 08:43:20;;;;;;;61.75;17.60;;;6.20;75.80;;;5.71;58.18;96527.81;5080102;28;20195;-81
2021/03/02 08:45:58;;;;;;;36.95;16.55;;;6.20;75.90;;;5.70;58.21;96520.94;5083488;28;20588;-81
2021/03/02 08:48:39;;;;;;;49.15;16.27;;;6.30;76.20;;;5.82;58.40;96526.13;5062104;28;20241;-80
2021/03/02 08:51:08;;;;;;;35.17;16.38;;;6.30;75.80;;;5.82;58.11;96516.53;5086550;28;20211;-82
2021/03/02 08:53:49;;;;;;;42.28;15.88;;;6.30;76.00;;;5.91;58.27;96521.00;5073119;28;20693;-82
2021/03/02 08:56:17;;;;;;;35.40;14.82;;;6.40;75.90;;;5.99;58.57;96530.00;5055869;28;20246;-81
2021/03/02 08:58:47;;;;;;;41.70;15.70;;;6.40;75.80;;;5.99;58.32;96517.81;5056543;28;20195;-80
2021/03/02 09:01:20;;;;;;;45.67;17.08;;;6.50;75.90;;;6.11;58.46;96526.41;5056318;28;20215;-80
2021/03/02 09:03:48;;;;;;;35.20;16.10;;;6.50;75.90;;;6.19;58.45;96536.22;5072800;28;20192;-80
2021/03/02 09:06:25;;;;;;;42.25;16.33;;;6.60;76.00;;;6.29;58.29;96528.50;5056656;28;20204;-80
2021/03/02 09:09:15;;;;;;;35.53;16.10;;;6.70;76.40;;;6.37;58.25;96531.28;5056730;28;20225;-81
2021/03/02 09:11:54;;;;;;;36.45;17.15;;;6.70;76.20;;;6.49;58.40;96526.84;5039874;28;20720;-81
2021/03/02 09:14:36;;;;;;;41.85;17.05;;;6.80;76.40;;;6.60;58.79;96529.41;5039856;28;20187;-80
2021/03/02 09:17:06;;;;;;;46.67;18.35;;;6.90;76.40;;;6.69;58.52;96527.84;5056823;28;20211;-81
2021/03/02 09:19:41;;;;;;;44.58;19.48;;;7.00;76.30;;;6.79;58.36;96531.31;5056556;28;20215;-81
2021/03/02 09:22:17;;;;;;;39.03;17.95;;;7.10;76.20;;;6.88;58.31;96529.72;5072891;28;20292;-81
2021/03/02 09:24:56;;;;;;;44.25;16.40;;;7.20;76.40;;;6.92;58.05;96536.34;5056240;28;20668;-81
2021/03/02 09:27:34;;;;;;;41.92;17.98;;;7.30;76.10;;;6.95;58.11;96535.25;5056335;28;20688;-81
2021/03/02 09:30:05;;;;;;;43.17;17.20;;;7.30;76.10;;;6.98;58.22;96530.63;5039426;28;20210;-82
2021/03/02 09:32:33;;;;;;;42.17;16.52;;;7.40;76.00;;;7.04;58.05;96529.25;5075567;28;20288;-82
2021/03/02 09:35:07;;;;;;;41.40;17.20;;;7.40;76.00;;;7.11;57.95;96525.16;5075416;28;20194;-82
2021/03/02 09:37:39;;;;;;;43.03;17.65;;;7.50;76.00;;;7.24;58.09;96529.34;5076269;28;20580;-81
2021/03/02 09:40:10;;;;;;;46.35;18.42;;;7.60;76.80;;;7.28;58.07;96531.56;5076289;28;20226;-82
2021/03/02 09:42:39;;;;;;;47.45;20.70;;;7.70;75.90;;;7.32;57.98;96532.97;5092991;28;20279;-81
2021/03/02 09:45:16;;;;;;;43.95;19.45;;;7.70;75.80;;;7.36;57.98;96536.13;5109725;28;20281;-81
2021/03/02 09:47:44;;;;;;;42.78;18.95;;;7.70;75.60;;;7.40;57.80;96547.97;5092072;28;20198;-80
2021/03/02 09:50:17;;;;;;;41.10;18.73;;;7.80;75.70;;;7.44;57.73;96541.50;5092384;28;20632;-81
2021/03/02 09:52:47;;;;;;;41.33;18.27;;;7.90;75.70;;;7.47;57.96;96538.66;5092780;28;20653;-81
2021/03/02 09:55:24;;;;;;;50.00;20.67;;;7.90;75.70;;;7.56;57.84;96544.03;5092372;28;20220;-80
2021/03/02 09:58:13;;;;;;;40.47;19.45;;;8.00;75.70;;;7.60;57.87;96551.47;5092533;28;20190;-81
2021/03/02 10:00:46;;;;;;;44.78;19.63;;;8.00;75.60;;;7.63;57.68;96548.59;5055773;28;20231;-81
2021/03/02 10:03:22;;;;;;;41.92;20.42;;;8.00;75.40;;;7.65;57.69;96543.22;5092166;28;20208;-81
2021/03/02 10:05:52;;;;;;;45.55;20.23;;;8.00;75.30;;;7.68;57.67;96556.84;5091416;28;20210;-82
2021/03/02 10:08:40;;;;;;;41.10;18.88;;;8.10;75.30;;;7.72;57.05;96548.75;5075578;28;20229;-82
2021/03/02 10:11:10;;;;;;;41.15;18.75;;;8.10;75.30;;;7.76;57.28;96543.13;5055589;28;20649;-82
2021/03/02 10:13:47;;;;;;;36.83;18.88;;;8.20;75.20;;;7.80;57.36;96544.53;5074813;28;20189;-82
2021/03/02 10:16:38;;;;;;;40.85;18.65;;;8.20;75.10;;;7.83;57.32;96544.25;5088886;28;20715;-82
2021/03/02 10:19:16;;;;;;;36.92;17.65;;;8.20;75.00;;;7.87;57.53;96550.03;5056138;28;20689;-82
2021/03/02 10:21:49;;;;;;;35.33;18.25;;;8.20;75.00;;;7.94;57.38;96543.31;5055616;28;20219;-82
2021/03/02 10:24:36;;;;;;;39.13;18.20;;;8.30;75.20;;;7.96;57.62;96535.34;5071802;28;20179;-82
2021/03/02 10:27:18;;;;;;;35.15;17.98;;;8.30;75.20;;;8.06;57.08;96530.94;5071979;28;20229;-82
2021/03/02 10:29:47;;;;;;;37.45;18.13;;;8.40;75.00;;;8.15;57.15;96534.53;5055152;28;20211;-81
2021/03/02 10:32:15;;;;;;;40.03;19.63;;;8.50;76.00;;;8.26;57.49;96544.84;5037855;28;20211;-80
2021/03/02 10:34:44;;;;;;;41.35;21.33;;;8.60;75.30;;;8.38;57.30;96536.88;5047573;28;20214;-83
2021/03/02 10:37:14;;;;;;;39.25;20.23;;;8.60;75.30;;;8.49;56.87;96528.94;5053411;28;20761;-82
2021/03/02 10:39:45;;;;;;;39.08;20.27;;;8.70;75.30;;;8.63;57.22;96530.31;5054467;28;20270;-82
2021/03/02 10:42:12;;;;;;;36.63;19.30;;;8.80;75.40;;;8.75;57.01;96521.34;5068516;28;20571;-81